createdAt,value
2022-09-11T00:02:08.068Z,98608.38
2022-09-11T00:04:37.074Z,98608.38
2022-09-11T00:07:05.198Z,98604.34
2022-09-11T00:09:37.685Z,98608.69
2022-09-11T00:12:07.327Z,98626.69
2022-09-11T00:14:35.609Z,98618.03
2022-09-11T00:17:05.594Z,98622.53
2022-09-11T00:19:35.990Z,98623.34
2022-09-11T00:22:04.094Z,98616.69
2022-09-11T00:24:32.521Z,98611.38
2022-09-11T00:27:00.975Z,98611.72
2022-09-11T00:29:31.018Z,98610.53
2022-09-11T00:32:24.702Z,98581.06
2022-09-11T00:34:55.794Z,98590.38
2022-09-11T00:37:23.700Z,98608.03
2022-09-11T00:39:52.795Z,98603.72
2022-09-11T00:42:22.177Z,98575.22
2022-09-11T00:45:03.638Z,98596.38
2022-09-11T00:47:33.561Z,98594.06
2022-09-11T00:50:11.005Z,98593.41
2022-09-11T00:52:43.084Z,98583.88
2022-09-11T00:55:15.638Z,98562.41
2022-09-11T00:57:49.754Z,98555.41
2022-09-11T01:00:18.101Z,98552.59
2022-09-11T01:02:52.803Z,98566.72
2022-09-11T01:05:22.700Z,98568.72
2022-09-11T01:07:54.814Z,98560.72
2022-09-11T01:10:29.185Z,98566.72
2022-09-11T01:13:07.376Z,98530.44
2022-09-11T01:15:40.290Z,98566.06
2022-09-11T01:18:20.510Z,98570.22
2022-09-11T01:21:09.306Z,98565.06
2022-09-11T01:24:10.627Z,98570.41
2022-09-11T01:27:05.318Z,98581.88
2022-09-11T01:29:41.643Z,98565.91
2022-09-11T01:32:15.922Z,98557.41
2022-09-11T01:34:50.940Z,98538.44
2022-09-11T01:37:26.038Z,98553.91
2022-09-11T01:40:00.004Z,98554.09
2022-09-11T01:42:33.075Z,98544.28
2022-09-11T01:45:06.056Z,98553.41
2022-09-11T01:47:36.016Z,98526.47
2022-09-11T01:50:09.823Z,98539.59
2022-09-11T01:52:46.130Z,98556.91
2022-09-11T01:55:19.999Z,98535.78
2022-09-11T01:57:53.466Z,98547.91
2022-09-11T02:00:23.582Z,98542.44
2022-09-11T02:02:55.754Z,98540.25
2022-09-11T02:05:29.178Z,98541.09
2022-09-11T02:08:02.593Z,98544.75
2022-09-11T02:10:35.190Z,98528.44
2022-09-11T02:13:08.899Z,98543.09
2022-09-11T02:15:47.883Z,98530.78
2022-09-11T02:18:21.109Z,98532.94
2022-09-11T02:20:49.170Z,98534.28
2022-09-11T02:23:17.988Z,98528.63
2022-09-11T02:25:46.182Z,98536.44
2022-09-11T02:28:14.780Z,98529.97
2022-09-11T02:30:44.980Z,98546.75
2022-09-11T02:33:30.605Z,98519.31
2022-09-11T02:36:14.459Z,98524.13
2022-09-11T02:38:56.135Z,98519.63
2022-09-11T02:41:28.563Z,98519.13
2022-09-11T02:44:06.456Z,98501.81
2022-09-11T02:46:53.433Z,98500.13
2022-09-11T02:49:34.809Z,98498.13
2022-09-11T02:52:09.436Z,98508.78
2022-09-11T02:54:53.740Z,98503.47
2022-09-11T02:57:27.542Z,98505.28
2022-09-11T03:00:00.536Z,98489.00
2022-09-11T03:02:31.574Z,98485.81
2022-09-11T03:04:59.471Z,98488.81
2022-09-11T03:07:27.613Z,98494.81
2022-09-11T03:09:55.434Z,98500.13
2022-09-11T03:12:23.870Z,98504.13
2022-09-11T03:14:52.596Z,98485.50
2022-09-11T03:17:21.917Z,98463.19
2022-09-11T03:19:51.181Z,98496.81
2022-09-11T03:22:19.437Z,98498.81
2022-09-11T03:24:48.203Z,98505.47
2022-09-11T03:27:17.204Z,98506.28
2022-09-11T03:29:46.643Z,98501.47
2022-09-11T03:32:16.168Z,98507.47
2022-09-11T03:34:44.194Z,98500.78
2022-09-11T03:37:14.085Z,98511.63
2022-09-11T03:39:41.993Z,98508.28
2022-09-11T03:42:12.304Z,98495.78
2022-09-11T03:44:41.249Z,98514.28
2022-09-11T03:47:09.288Z,98510.78
2022-09-11T03:49:37.932Z,98505.47
2022-09-11T03:52:06.616Z,98509.78
2022-09-11T03:54:35.849Z,98525.94
2022-09-11T03:57:03.776Z,98524.78
2022-09-11T03:59:31.750Z,98509.13
2022-09-11T04:01:59.765Z,98502.31
2022-09-11T04:04:28.139Z,98500.66
2022-09-11T04:06:56.167Z,98489.31
2022-09-11T04:09:26.829Z,98491.81
2022-09-11T04:11:56.529Z,98496.44
2022-09-11T04:14:24.589Z,98497.97
2022-09-11T04:16:52.780Z,98498.81
2022-09-11T04:19:21.982Z,98505.97
2022-09-11T04:21:49.929Z,98503.31
2022-09-11T04:24:18.162Z,98499.94
2022-09-11T04:26:47.287Z,98498.28
2022-09-11T04:29:17.849Z,98509.47
2022-09-11T04:31:46.241Z,98511.13
2022-09-11T04:34:14.412Z,98510.59
2022-09-11T04:36:43.708Z,98521.44
2022-09-11T04:39:12.406Z,98527.44
2022-09-11T04:41:40.370Z,98535.75
2022-09-11T04:44:08.183Z,98553.75
2022-09-11T04:46:37.372Z,98563.09
2022-09-11T04:49:05.351Z,98548.41
2022-09-11T04:51:35.432Z,98566.41
2022-09-11T04:54:04.622Z,98577.06
2022-09-11T04:56:34.973Z,98590.72
2022-09-11T04:59:06.604Z,98615.19
2022-09-11T05:01:35.776Z,98617.03
2022-09-11T05:04:05.105Z,98629.00
2022-09-11T05:06:34.021Z,98636.84
2022-09-11T05:09:04.992Z,98648.00
2022-09-11T05:11:33.220Z,98651.00
2022-09-11T05:14:01.350Z,98661.31
2022-09-11T05:16:31.089Z,98686.31
2022-09-11T05:18:59.694Z,98696.66
2022-09-11T05:21:29.584Z,98715.97
2022-09-11T05:23:58.909Z,98728.81
2022-09-11T05:26:29.010Z,98743.28
2022-09-11T05:28:57.810Z,98763.13
2022-09-11T05:31:26.676Z,98777.28
2022-09-11T05:33:55.900Z,98812.66
2022-09-11T05:36:24.733Z,98828.16
2022-09-11T05:38:54.388Z,98840.66
2022-09-11T05:41:23.851Z,98867.34
2022-09-11T05:43:52.592Z,98890.16
2022-09-11T05:46:21.936Z,98910.00
2022-09-11T05:48:50.011Z,98941.91
2022-09-11T05:51:20.335Z,98969.59
2022-09-11T05:53:50.385Z,98992.59
2022-09-11T05:56:21.472Z,99019.97
2022-09-11T05:58:51.621Z,99008.09
2022-09-11T06:01:21.952Z,99085.25
2022-09-11T06:03:50.816Z,99079.75
2022-09-11T06:06:21.219Z,99136.38
2022-09-11T06:08:51.044Z,99142.72
2022-09-11T06:11:21.993Z,99198.19
2022-09-11T06:13:50.878Z,99222.25
2022-09-11T06:16:20.567Z,99252.00
2022-09-11T06:18:49.842Z,99275.38
2022-09-11T06:21:20.636Z,99305.16
2022-09-11T06:23:49.693Z,99325.22
2022-09-11T06:26:19.212Z,99346.09
2022-09-11T06:28:49.215Z,99372.69
2022-09-11T06:31:19.317Z,99392.25
2022-09-11T06:33:48.279Z,99405.84
2022-09-11T06:36:18.236Z,99425.22
2022-09-11T06:38:47.043Z,99475.03
2022-09-11T06:41:16.509Z,99492.13
2022-09-11T06:43:45.309Z,99514.56
2022-09-11T06:46:16.557Z,99548.72
2022-09-11T06:48:47.624Z,99579.50
2022-09-11T06:51:17.633Z,99594.69
2022-09-11T06:53:47.370Z,99620.50
2022-09-11T06:56:17.264Z,99630.19
2022-09-11T06:58:46.736Z,99672.47
2022-09-11T07:01:17.148Z,99695.09
2022-09-11T07:03:46.381Z,99697.56
2022-09-11T07:06:15.183Z,99736.59
2022-09-11T07:08:43.249Z,99791.06
2022-09-11T07:11:12.885Z,99832.84
2022-09-11T07:13:42.048Z,99870.69
2022-09-11T07:16:14.788Z,99898.22
2022-09-11T07:18:45.669Z,99898.91
2022-09-11T07:21:16.790Z,99906.09
2022-09-11T07:23:48.527Z,99925.25
2022-09-11T07:26:17.557Z,99921.31
2022-09-11T07:28:48.781Z,99939.31
2022-09-11T07:31:20.999Z,99937.47
2022-09-11T07:33:52.251Z,99935.66
2022-09-11T07:36:21.610Z,99959.28
2022-09-11T07:38:51.066Z,99967.16
2022-09-11T07:41:21.309Z,99948.78
2022-09-11T07:43:53.858Z,99963.94
2022-09-11T07:46:22.675Z,99975.88
2022-09-11T07:48:52.006Z,100000.38
2022-09-11T07:51:20.145Z,100003.72
2022-09-11T07:53:50.191Z,99997.84
2022-09-11T07:56:23.274Z,99983.22
2022-09-11T07:58:52.587Z,99994.47
2022-09-11T08:01:22.856Z,99991.66
2022-09-11T08:03:58.434Z,99985.59
2022-09-11T08:06:28.025Z,99974.81
2022-09-11T08:08:57.379Z,99997.84
2022-09-11T08:11:29.534Z,99973.66
2022-09-11T08:13:57.787Z,99986.59
2022-09-11T08:16:28.200Z,99987.44
2022-09-11T08:18:58.203Z,100005.50
2022-09-11T08:21:27.669Z,100032.06
2022-09-11T08:23:55.686Z,100032.91
2022-09-11T08:26:26.131Z,100024.16
2022-09-11T08:28:55.739Z,100020.28
2022-09-11T08:31:26.356Z,100009.41
2022-09-11T08:33:54.778Z,99995.94
2022-09-11T08:36:24.390Z,99992.25
2022-09-11T08:38:53.053Z,99994.63
2022-09-11T08:41:33.714Z,100000.69
2022-09-11T08:44:06.472Z,99991.41
2022-09-11T08:46:38.549Z,99998.69
2022-09-11T08:49:15.771Z,99996.16
2022-09-11T08:51:47.360Z,99981.25
2022-09-11T08:54:27.702Z,99980.72
2022-09-11T08:57:11.530Z,99997.84
2022-09-11T08:59:56.670Z,100008.03
2022-09-11T09:02:44.281Z,100014.75
2022-09-11T09:05:21.838Z,99994.72
2022-09-11T09:08:21.381Z,100009.47
2022-09-11T09:11:22.421Z,100033.66
2022-09-11T09:14:16.835Z,100073.34
2022-09-11T09:17:09.251Z,100107.94
2022-09-11T09:20:02.835Z,100104.94
2022-09-11T09:22:39.456Z,100140.72
2022-09-11T09:25:14.633Z,100216.44
2022-09-11T09:27:53.089Z,100277.59
2022-09-11T09:30:31.581Z,100305.63
2022-09-11T09:33:15.656Z,100355.41
2022-09-11T09:35:46.489Z,100403.34
2022-09-11T09:38:16.130Z,100447.25
2022-09-11T09:40:56.613Z,100497.56
2022-09-11T09:43:39.519Z,100503.09
2022-09-11T09:46:18.895Z,100532.88
2022-09-11T09:48:46.875Z,100568.44
2022-09-11T09:51:39.887Z,100529.69
2022-09-11T09:54:16.055Z,100583.41
2022-09-11T09:56:53.356Z,100583.00
2022-09-11T09:59:27.349Z,100623.81
2022-09-11T10:01:55.383Z,100593.31
2022-09-11T10:04:27.941Z,100611.41
2022-09-11T10:07:08.276Z,100639.63
2022-09-11T10:09:36.423Z,100656.16
2022-09-11T10:12:08.728Z,100698.25
2022-09-11T10:14:52.761Z,100702.63
2022-09-11T10:17:32.048Z,100725.53
2022-09-11T10:20:22.043Z,100734.97
2022-09-11T10:22:51.159Z,100829.69
2022-09-11T10:25:21.833Z,100804.09
2022-09-11T10:28:01.836Z,100803.25
2022-09-11T10:30:34.255Z,100835.75
2022-09-11T10:33:06.440Z,100905.88
2022-09-11T10:35:36.532Z,100904.16
2022-09-11T10:38:18.051Z,100903.31
2022-09-11T10:41:16.050Z,100972.66
2022-09-11T10:43:51.266Z,100952.28
2022-09-11T10:46:39.729Z,100958.50
2022-09-11T10:49:19.287Z,100947.03
2022-09-11T10:52:02.586Z,100992.59
2022-09-11T10:54:45.875Z,100984.81
2022-09-11T10:57:23.808Z,100990.88
2022-09-11T11:00:03.828Z,100989.88
2022-09-11T11:02:34.585Z,100986.34
2022-09-11T11:05:06.154Z,100989.34
2022-09-11T11:08:13.922Z,101007.44
2022-09-11T11:11:04.397Z,100996.41
2022-09-11T11:13:45.429Z,101004.03
2022-09-11T11:16:23.228Z,101009.13
2022-09-11T11:19:10.447Z,101011.13
2022-09-11T11:21:49.360Z,100982.25
2022-09-11T11:24:34.066Z,100969.97
2022-09-11T11:27:21.720Z,100946.91
2022-09-11T11:30:06.309Z,100917.91
2022-09-11T11:32:50.189Z,100938.13
2022-09-11T11:35:23.875Z,100954.81
2022-09-11T11:37:56.740Z,100910.09
2022-09-11T11:40:30.042Z,100906.56
2022-09-11T11:43:01.907Z,100947.88
2022-09-11T11:45:35.887Z,101015.91
2022-09-11T11:48:10.528Z,101030.94
2022-09-11T11:50:42.866Z,101061.13
2022-09-11T11:53:18.555Z,101115.03
2022-09-11T11:55:55.502Z,101121.25
2022-09-11T11:58:35.807Z,101196.91
2022-09-11T12:01:07.739Z,101152.72
2022-09-11T12:03:45.624Z,101151.56
2022-09-11T12:06:16.393Z,101067.31
2022-09-11T12:08:47.227Z,101127.34
2022-09-11T12:11:20.295Z,101102.31
2022-09-11T12:13:49.578Z,101145.03
2022-09-11T12:16:22.193Z,101182.19
2022-09-11T12:19:07.782Z,101210.91
2022-09-11T12:21:43.925Z,101278.50
2022-09-11T12:24:19.086Z,101354.75
2022-09-11T12:26:47.333Z,101403.13
2022-09-11T12:29:51.870Z,101436.47
2022-09-11T12:32:42.814Z,101491.06
2022-09-11T12:35:32.275Z,101546.56
2022-09-11T12:38:04.612Z,101598.06
2022-09-11T12:40:37.824Z,101729.69
2022-09-11T12:43:30.969Z,101849.66
2022-09-11T12:45:59.027Z,101941.22
2022-09-11T12:48:37.253Z,101977.34
2022-09-11T12:51:17.404Z,102026.00
2022-09-11T12:53:50.238Z,102049.91
2022-09-11T12:56:21.987Z,102055.75
2022-09-11T12:58:56.228Z,102024.88
2022-09-11T13:01:30.728Z,102079.78
2022-09-11T13:04:03.305Z,102146.56
2022-09-11T13:06:42.800Z,102194.25
2022-09-11T13:09:22.463Z,102158.09
2022-09-11T13:11:52.493Z,102183.56
2022-09-11T13:14:49.969Z,102185.44
2022-09-11T13:17:26.038Z,102189.69
2022-09-11T13:19:57.876Z,102157.38
2022-09-11T13:22:31.083Z,102185.28
2022-09-11T13:25:12.777Z,102169.47
2022-09-11T13:27:46.593Z,102189.47
2022-09-11T13:30:16.442Z,102124.22
2022-09-11T13:32:47.288Z,102165.53
2022-09-11T13:35:18.130Z,102168.34
2022-09-11T13:37:54.496Z,102018.06
2022-09-11T13:40:29.412Z,102055.34
2022-09-11T13:42:57.861Z,102110.81
2022-09-11T13:45:28.588Z,102168.34
2022-09-11T13:47:58.111Z,102159.81
2022-09-11T13:50:27.579Z,102266.97
2022-09-11T13:52:57.164Z,102304.84
2022-09-11T13:55:27.936Z,102247.59
2022-09-11T13:57:58.670Z,102214.81
2022-09-11T14:00:44.887Z,102329.66
2022-09-11T14:03:21.713Z,102315.41
2022-09-11T14:05:54.018Z,102353.72
2022-09-11T14:08:32.589Z,102462.34
2022-09-11T14:11:04.363Z,102523.91
2022-09-11T14:13:37.684Z,102584.09
2022-09-11T14:16:09.291Z,102777.13
2022-09-11T14:18:41.851Z,102901.31
2022-09-11T14:21:16.225Z,103054.75
2022-09-11T14:23:48.562Z,103359.66
2022-09-11T14:26:18.778Z,103419.88
2022-09-11T14:29:05.907Z,103419.25
2022-09-11T14:31:37.607Z,103337.31
2022-09-11T14:34:19.864Z,103251.22
2022-09-11T14:36:54.532Z,103239.38
2022-09-11T14:39:36.425Z,103200.16
2022-09-11T14:42:08.050Z,103031.59
2022-09-11T14:44:39.399Z,102939.47
2022-09-11T14:47:07.636Z,102880.38
2022-09-11T14:49:35.545Z,102864.63
2022-09-11T14:52:03.804Z,102806.59
2022-09-11T14:54:36.146Z,102688.91
2022-09-11T14:57:04.300Z,102605.31
2022-09-11T14:59:32.601Z,102469.16
2022-09-11T15:02:00.688Z,102430.81
2022-09-11T15:04:31.322Z,102354.97
2022-09-11T15:06:59.925Z,102300.09
2022-09-11T15:09:28.257Z,102346.00
2022-09-11T15:11:59.621Z,102172.75
2022-09-11T15:14:54.453Z,102035.16
2022-09-11T15:17:19.587Z,101972.03
2022-09-11T15:19:49.995Z,101833.81
2022-09-11T15:22:18.963Z,101728.66
2022-09-11T15:24:48.253Z,101655.78
2022-09-11T15:27:19.288Z,101584.03
2022-09-11T15:29:47.310Z,101556.81
2022-09-11T15:32:15.218Z,101496.94
2022-09-11T15:34:47.446Z,101406.25
2022-09-11T15:37:17.040Z,101316.50
2022-09-11T15:39:45.036Z,101237.34
2022-09-11T15:42:13.805Z,101168.78
2022-09-11T15:44:43.208Z,101132.97
2022-09-11T15:47:12.528Z,101046.19
2022-09-11T15:49:42.523Z,101025.25
2022-09-11T15:52:19.512Z,100961.81
2022-09-11T15:54:48.970Z,100910.03
2022-09-11T15:57:17.387Z,100889.53
2022-09-11T15:59:46.750Z,100855.38
2022-09-11T16:02:15.034Z,100811.84
2022-09-11T16:04:43.082Z,100832.47
2022-09-11T16:07:11.032Z,100766.59
2022-09-11T16:09:39.267Z,100715.69
2022-09-11T16:12:07.951Z,100682.34
2022-09-11T16:14:38.435Z,100697.34
2022-09-11T16:17:08.749Z,100713.84
2022-09-11T16:19:38.599Z,100620.06
2022-09-11T16:22:08.915Z,100556.38
2022-09-11T16:24:38.136Z,100512.63
2022-09-11T16:27:07.811Z,100461.09
2022-09-11T16:30:08.910Z,100424.53
2022-09-11T16:32:31.910Z,100398.84
2022-09-11T16:35:00.324Z,100369.53
2022-09-11T16:37:28.508Z,100357.50
2022-09-11T16:39:56.494Z,100360.19
2022-09-11T16:42:24.430Z,100326.88
2022-09-11T16:44:53.630Z,100307.69
2022-09-11T16:47:21.675Z,100298.13
2022-09-11T16:50:06.383Z,100251.09
2022-09-11T16:52:35.359Z,100251.06
2022-09-11T16:55:03.430Z,100204.66
2022-09-11T16:57:31.404Z,100144.38
2022-09-11T16:59:59.642Z,100082.53
2022-09-11T17:02:27.831Z,100023.13
2022-09-11T17:04:57.089Z,99981.31
2022-09-11T17:07:25.044Z,99935.81
2022-09-11T17:09:55.171Z,99849.72
2022-09-11T17:12:22.977Z,99792.22
2022-09-11T17:14:51.081Z,99732.88
2022-09-11T17:17:19.286Z,99690.31
2022-09-11T17:19:50.490Z,99627.97
2022-09-11T17:22:19.897Z,99592.66
2022-09-11T17:24:47.796Z,99556.84
2022-09-11T17:27:15.869Z,99514.47
2022-09-11T17:29:44.849Z,99478.75
2022-09-11T17:32:27.935Z,99453.19
2022-09-11T17:34:56.931Z,99427.09
2022-09-11T17:37:27.060Z,99369.47
2022-09-11T17:39:55.750Z,99350.09
2022-09-11T17:42:24.209Z,99323.03
2022-09-11T17:44:52.061Z,99278.72
2022-09-11T17:47:20.381Z,99216.34
2022-09-11T17:49:49.947Z,99158.22
2022-09-11T17:52:20.583Z,99096.91
2022-09-11T17:54:50.156Z,99045.81
2022-09-11T17:57:17.962Z,98992.22
2022-09-11T17:59:49.920Z,98936.97
2022-09-11T18:02:20.064Z,98874.72
2022-09-11T18:04:48.752Z,98826.69
2022-09-11T18:07:17.047Z,98780.69
2022-09-11T18:09:45.300Z,98707.66
2022-09-11T18:12:14.641Z,98663.19
2022-09-11T18:14:43.881Z,98612.69
2022-09-11T18:17:12.287Z,98550.59
2022-09-11T18:19:40.208Z,98490.31
2022-09-11T18:22:09.865Z,98448.72
2022-09-11T18:24:39.847Z,98403.59
2022-09-11T18:27:09.939Z,98353.03
2022-09-11T18:29:40.786Z,98324.25
2022-09-11T18:32:10.188Z,98288.81
2022-09-11T18:34:38.429Z,98263.88
2022-09-11T18:37:07.353Z,98238.97
2022-09-11T18:39:35.478Z,98190.41
2022-09-11T18:42:06.322Z,98157.53
2022-09-11T18:44:34.256Z,98146.91
2022-09-11T18:47:03.485Z,98141.25
2022-09-11T18:49:31.593Z,98122.66
2022-09-11T18:52:00.413Z,98115.69
2022-09-11T18:54:30.087Z,98087.13
2022-09-11T18:57:00.219Z,98056.06
2022-09-11T18:59:28.396Z,98017.22
2022-09-11T19:01:57.269Z,97979.38
2022-09-11T19:04:27.202Z,97948.50
2022-09-11T19:06:55.128Z,97909.50
2022-09-11T19:09:23.122Z,97883.00
2022-09-11T19:11:52.414Z,97863.91
2022-09-11T19:14:21.080Z,97844.16
2022-09-11T19:16:49.467Z,97828.56
2022-09-11T19:19:17.434Z,97801.88
2022-09-11T19:21:46.942Z,97777.22
2022-09-11T19:24:15.011Z,97771.88
2022-09-11T19:26:43.746Z,97765.25
2022-09-11T19:29:13.257Z,97770.22
2022-09-11T19:31:42.336Z,97787.81
2022-09-11T19:34:13.104Z,97797.75
2022-09-11T19:36:42.146Z,97805.53
2022-09-11T19:39:12.396Z,97809.38
2022-09-11T19:41:41.215Z,97804.06
2022-09-11T19:44:13.117Z,97791.59
2022-09-11T19:46:42.962Z,97762.41
2022-09-11T19:49:11.867Z,97717.34
2022-09-11T19:51:42.426Z,97690.69
2022-09-11T19:54:12.844Z,97671.44
2022-09-11T19:56:41.789Z,97644.63
2022-09-11T19:59:10.317Z,97616.63
2022-09-11T20:01:38.518Z,97586.31
2022-09-11T20:04:06.841Z,97551.88
2022-09-11T20:06:36.211Z,97515.81
2022-09-11T20:11:55.909Z,97452.59
2022-09-11T20:14:24.033Z,97410.28
2022-09-11T20:16:51.786Z,97402.63
2022-09-11T20:19:20.670Z,97376.47
2022-09-11T20:21:48.807Z,97353.03
2022-09-11T20:24:17.194Z,97344.06
2022-09-11T20:26:45.372Z,97337.31
2022-09-11T20:29:16.134Z,97300.78
2022-09-11T20:31:48.652Z,97276.00
2022-09-11T20:34:17.153Z,97236.34
2022-09-11T20:36:48.305Z,97194.44
2022-09-11T20:39:17.393Z,97203.63
2022-09-11T20:41:45.567Z,97205.44
2022-09-11T20:44:14.757Z,97186.31
2022-09-11T20:46:43.862Z,97176.53
2022-09-11T20:49:14.319Z,97165.13
2022-09-11T20:51:42.170Z,97146.13
2022-09-11T20:54:10.453Z,97116.78
2022-09-11T20:56:38.598Z,97105.84
2022-09-11T20:59:06.405Z,97102.91
2022-09-11T21:01:36.307Z,97080.25
2022-09-11T21:04:05.607Z,97070.84
2022-09-11T21:06:35.214Z,97051.34
2022-09-11T21:09:06.685Z,97042.75
2022-09-11T21:11:35.859Z,97007.63
2022-09-11T21:14:04.027Z,96978.94
2022-09-11T21:16:32.033Z,96974.94
2022-09-11T21:19:02.695Z,96957.03
2022-09-11T21:21:31.114Z,96939.78
2022-09-11T21:24:01.281Z,96941.78
2022-09-11T21:26:31.021Z,96922.34
2022-09-11T21:29:00.548Z,96900.91
2022-09-11T21:31:30.393Z,96879.66
2022-09-11T21:33:58.530Z,96878.47
2022-09-11T21:36:28.386Z,96854.41
2022-09-11T21:38:58.917Z,96845.16
2022-09-11T21:41:27.079Z,96815.97
2022-09-11T21:43:55.021Z,96782.50
2022-09-11T21:46:23.075Z,96767.38
2022-09-11T21:48:50.942Z,96765.56
2022-09-11T21:51:21.033Z,96753.91
2022-09-11T21:53:55.998Z,96748.59
2022-09-11T21:56:25.949Z,96719.59
2022-09-11T21:58:55.097Z,96713.69
2022-09-11T22:01:25.205Z,96690.63
2022-09-11T22:03:53.409Z,96682.06
2022-09-11T22:06:23.748Z,96671.50
2022-09-11T22:08:53.614Z,96657.19
2022-09-11T22:11:22.067Z,96643.72
2022-09-11T22:13:50.351Z,96650.28
2022-09-11T22:16:20.331Z,96633.97
2022-09-11T22:18:50.546Z,96635.31
2022-09-11T22:21:18.505Z,96628.56
2022-09-11T22:23:47.003Z,96620.28
2022-09-11T22:26:19.208Z,96603.97
2022-09-11T22:28:47.543Z,96593.13
2022-09-11T22:31:18.221Z,96571.09
2022-09-11T22:33:46.347Z,96562.19
2022-09-11T22:36:17.045Z,96548.72
2022-09-11T22:38:45.078Z,96540.16
2022-09-11T22:41:13.980Z,96522.13
2022-09-11T22:43:43.354Z,96517.47
2022-09-11T22:46:12.477Z,96500.34
2022-09-11T22:48:40.776Z,96490.78
2022-09-11T22:51:09.443Z,96476.34
2022-09-11T22:53:39.477Z,96467.50
2022-09-11T22:56:09.513Z,96454.31
2022-09-11T22:58:38.295Z,96450.03
2022-09-11T23:01:09.556Z,96423.19
2022-09-11T23:03:37.712Z,96407.44
2022-09-11T23:06:23.716Z,96410.91
2022-09-11T23:08:52.455Z,96376.06
2022-09-11T23:11:21.273Z,96378.72
2022-09-11T23:13:50.486Z,96379.53
2022-09-11T23:16:26.258Z,96357.97
2022-09-11T23:18:54.757Z,96339.44
2022-09-11T23:21:23.829Z,96345.34
2022-09-11T23:23:54.505Z,96320.84
2022-09-11T23:26:23.540Z,96319.03
2022-09-11T23:28:51.873Z,96311.50
2022-09-11T23:31:24.925Z,96297.47
2022-09-11T23:33:55.433Z,96280.59
2022-09-11T23:36:24.151Z,96275.31
2022-09-11T23:38:52.489Z,96256.78
2022-09-11T23:41:20.736Z,96242.31
2022-09-11T23:43:48.760Z,96237.06
2022-09-11T23:46:17.384Z,96239.69
2022-09-11T23:48:48.820Z,96218.69
2022-09-11T23:51:17.622Z,96205.69
2022-09-11T23:53:47.664Z,96168.06
2022-09-11T23:56:16.159Z,96164.63
2022-09-11T23:58:45.758Z,96149.38
